Time;durP1;ratioP1;P1;durP2;ratioP2;P2;SDS_P1;SDS_P2;PMS_P1;PMS_P2;Temp;Humidity;BMP_temperature;BMP_pressure;BME280_temperature;BME280_humidity;BME280_pressure;Samples;Min_cycle;Max_cycle;Signal;HPM_P1;HPM_P2
2021/01/06 00:01:46;;;;;;;14.60;10.53;;;3.40;99.90;;;;;;4944341;28;20434;-88
2021/01/06 00:04:11;;;;;;;16.90;9.30;;;3.30;99.90;;;;;;4963358;28;20997;-89
2021/01/06 00:06:38;;;;;;;18.27;10.87;;;3.30;99.90;;;;;;4949794;28;20187;-90
2021/01/06 00:09:10;;;;;;;17.90;10.40;;;3.30;99.90;;;;;;4949661;28;20186;-89
2021/01/06 00:11:41;;;;;;;15.07;10.17;;;3.20;99.90;;;;;;4947926;28;20434;-88
2021/01/06 00:14:13;;;;;;;16.07;11.20;;;3.10;99.90;;;;;;4964797;28;20858;-90
2021/01/06 00:16:58;;;;;;;15.27;10.10;;;3.10;99.90;;;;;;4947840;28;20481;-89
2021/01/06 00:19:24;;;;;;;14.97;10.20;;;3.10;99.90;;;;;;4964156;28;20879;-89
2021/01/06 00:21:50;;;;;;;14.47;9.57;;;3.10;99.90;;;;;;4949795;28;20481;-90
2021/01/06 00:24:16;;;;;;;16.33;10.77;;;3.10;99.90;;;;;;4947132;28;20434;-90
2021/01/06 00:26:44;;;;;;;17.90;10.37;;;3.10;99.90;;;;;;4948493;28;20197;-89
2021/01/06 00:29:25;;;;;;;16.13;10.17;;;3.10;99.90;;;;;;4930998;28;20482;-89
2021/01/06 00:31:51;;;;;;;18.23;11.10;;;3.10;99.90;;;;;;4946272;28;20457;-90
2021/01/06 00:34:18;;;;;;;22.23;11.90;;;3.10;99.90;;;;;;4948280;28;20501;-87
2021/01/06 00:36:48;;;;;;;21.40;11.80;;;2.90;99.90;;;;;;4944252;28;20720;-88
2021/01/06 00:39:20;;;;;;;19.70;10.60;;;2.90;99.90;;;;;;4944573;28;20482;-88
2021/01/06 00:41:51;;;;;;;16.77;11.17;;;2.90;99.90;;;;;;4964792;28;20414;-89
2021/01/06 00:44:29;;;;;;;17.17;11.27;;;3.00;99.90;;;;;;4945642;28;20438;-89
2021/01/06 00:47:20;;;;;;;;;;;;;;;;;;;;;
2021/01/06 00:49:54;;;;;;;24.63;13.00;;;3.00;99.90;;;;;;4959293;28;20948;-90
2021/01/06 00:55:43;;;;;;;17.57;10.33;;;2.90;99.90;;;;;;4964442;28;20454;-90
2021/01/06 00:58:26;;;;;;;20.37;12.90;;;3.00;99.90;;;;;;4947615;28;20447;-90
2021/01/06 01:00:53;;;;;;;18.00;10.80;;;2.90;99.90;;;;;;4944726;28;20441;-87
2021/01/06 01:03:33;;;;;;;14.53;9.63;;;2.90;99.90;;;;;;4946892;28;20852;-89
2021/01/06 01:06:08;;;;;;;20.53;11.67;;;2.90;99.90;;;;;;4945128;28;20980;-89
2021/01/06 01:08:37;;;;;;;17.17;10.70;;;3.00;99.90;;;;;;4938028;28;20531;-90
2021/01/06 01:11:47;;;;;;;18.00;11.00;;;2.90;99.90;;;;;;4944923;28;20549;-90
2021/01/06 01:14:31;;;;;;;20.67;10.87;;;3.00;99.90;;;;;;4870583;29;20519;-91
2021/01/06 01:17:34;;;;;;;18.10;12.03;;;3.00;99.90;;;;;;4870766;29;20453;-92
2021/01/06 01:20:12;;;;;;;17.20;11.20;;;3.00;99.90;;;;;;4917507;28;20469;-89
2021/01/06 01:22:42;;;;;;;20.13;12.70;;;3.00;99.90;;;;;;4965921;28;20459;-90
2021/01/06 01:25:10;;;;;;;17.93;12.20;;;3.00;99.90;;;;;;4948801;28;20437;-88
2021/01/06 01:27:48;;;;;;;21.33;13.50;;;3.00;99.90;;;;;;4947415;28;20440;-89
2021/01/06 01:30:21;;;;;;;22.53;13.17;;;3.10;99.90;;;;;;4951973;28;20910;-90
2021/01/06 01:32:57;;;;;;;22.20;12.10;;;3.00;99.90;;;;;;4946165;28;20477;-89
2021/01/06 01:35:33;;;;;;;21.00;11.20;;;3.00;99.90;;;;;;4951220;28;20436;-90
2021/01/06 01:38:02;;;;;;;21.40;13.20;;;3.00;99.90;;;;;;4966142;28;20964;-90
2021/01/06 01:41:18;;;;;;;23.87;11.50;;;3.00;99.90;;;;;;4952166;28;20448;-93
2021/01/06 01:43:46;;;;;;;21.57;11.83;;;3.00;99.90;;;;;;4947529;28;20930;-90
2021/01/06 01:46:44;;;;;;;18.60;11.80;;;2.90;99.90;;;;;;4948717;28;20837;-90
2021/01/06 01:49:48;;;;;;;15.73;9.20;;;2.90;99.90;;;;;;4946613;28;20450;-91
2021/01/06 01:52:51;;;;;;;20.70;11.43;;;2.90;99.90;;;;;;4945433;28;20488;-89
2021/01/06 01:55:43;;;;;;;21.63;10.17;;;2.80;99.90;;;;;;4966312;28;20434;-89
2021/01/06 01:58:42;;;;;;;20.67;12.97;;;2.70;99.90;;;;;;4949293;28;20442;-92
2021/01/06 02:01:40;;;;;;;19.33;10.17;;;2.80;99.90;;;;;;4949460;28;20428;-93
2021/01/06 02:04:30;;;;;;;31.10;10.83;;;2.80;99.90;;;;;;4946691;28;20468;-89
2021/01/06 02:07:26;;;;;;;19.40;10.87;;;2.80;99.90;;;;;;4960603;28;20879;-87
2021/01/06 02:10:42;;;;;;;;;;;;;;;;;;;;;
2021/01/06 02:17:24;;;;;;;23.17;11.93;;;2.90;99.90;;;;;;4898630;29;20433;-89
2021/01/06 02:20:28;;;;;;;20.83;11.73;;;2.90;99.90;;;;;;4855074;29;20461;-91
2021/01/06 02:22:59;;;;;;;20.57;12.43;;;2.90;99.90;;;;;;4866822;28;20512;-92
2021/01/06 02:25:39;;;;;;;22.27;9.70;;;2.80;99.90;;;;;;4958976;28;20508;-92
2021/01/06 02:28:25;;;;;;;19.73;11.30;;;2.80;99.90;;;;;;4953201;28;20591;-91
2021/01/06 02:31:59;;;;;;;18.30;9.30;;;2.70;99.90;;;;;;4933036;28;20449;-90
2021/01/06 02:38:26;;;;;;;;;;;;;;;;;;;;;
2021/01/06 02:41:13;;;;;;;20.07;10.53;;;2.70;99.90;;;;;;4963195;28;20463;-90
2021/01/06 02:43:56;;;;;;;20.97;11.30;;;2.70;99.90;;;;;;4957983;28;20471;-90
2021/01/06 02:46:28;;;;;;;22.70;10.93;;;2.70;99.90;;;;;;4947358;28;20520;-90
2021/01/06 02:49:04;;;;;;;18.10;10.17;;;2.60;99.90;;;;;;4943554;28;20459;-87
2021/01/06 02:52:39;;;;;;;21.80;12.10;;;2.60;99.90;;;;;;4950559;28;20622;-87
2021/01/06 02:55:26;;;;;;;21.07;11.57;;;2.50;99.90;;;;;;4882072;29;20437;-91
2021/01/06 02:58:44;;;;;;;18.17;11.00;;;2.50;99.90;;;;;;4926209;28;20803;-88
2021/01/06 03:01:45;;;;;;;16.83;10.17;;;2.50;99.90;;;;;;4948926;28;20878;-91
2021/01/06 03:04:23;;;;;;;21.87;11.00;;;2.50;99.90;;;;;;4949262;28;20539;-90
2021/01/06 03:06:56;;;;;;;21.77;11.23;;;2.50;99.90;;;;;;4948802;28;20449;-93
2021/01/06 03:09:32;;;;;;;18.67;11.13;;;2.40;99.90;;;;;;4955961;28;20434;-86
2021/01/06 03:12:33;;;;;;;16.27;10.00;;;2.50;99.90;;;;;;4955790;28;20441;-89
2021/01/06 03:15:22;;;;;;;18.03;11.27;;;2.60;99.90;;;;;;4972116;28;20511;-88
2021/01/06 03:17:58;;;;;;;19.37;10.57;;;2.60;99.90;;;;;;4950542;28;20948;-88
2021/01/06 03:20:46;;;;;;;19.03;10.73;;;2.60;99.90;;;;;;4944775;28;20442;-87
2021/01/06 03:23:29;;;;;;;18.80;11.00;;;2.70;99.90;;;;;;4949397;28;20795;-89
2021/01/06 03:26:06;;;;;;;20.83;10.50;;;2.70;99.90;;;;;;4965395;28;20440;-89
2021/01/06 03:28:34;;;;;;;18.80;10.57;;;2.70;99.90;;;;;;4944655;28;20462;-89
2021/01/06 03:31:04;;;;;;;15.97;10.80;;;2.70;99.90;;;;;;4949140;28;20446;-90
2021/01/06 03:33:45;;;;;;;21.33;11.83;;;2.70;99.90;;;;;;4948243;28;20552;-86
2021/01/06 03:36:19;;;;;;;19.67;11.30;;;2.60;99.90;;;;;;4948098;28;20460;-89
2021/01/06 03:38:59;;;;;;;19.73;10.70;;;2.50;99.90;;;;;;4963230;28;20445;-88
2021/01/06 03:41:56;;;;;;;20.30;11.03;;;2.50;99.90;;;;;;4944965;28;20639;-92
2021/01/06 03:44:39;;;;;;;17.53;11.03;;;2.60;99.90;;;;;;4948114;28;20461;-91
2021/01/06 03:47:36;;;;;;;21.10;11.00;;;2.50;99.90;;;;;;4949987;28;20464;-90
2021/01/06 03:50:14;;;;;;;17.77;11.70;;;2.60;99.90;;;;;;4965941;28;20850;-90
2021/01/06 03:53:14;;;;;;;16.67;10.07;;;2.60;99.90;;;;;;4944784;28;20524;-90
2021/01/06 03:56:18;;;;;;;20.73;10.60;;;2.60;99.90;;;;;;4945715;28;20443;-87
2021/01/06 03:59:15;;;;;;;24.20;12.23;;;2.60;99.90;;;;;;4948572;28;20429;-87
2021/01/06 04:02:05;;;;;;;21.97;11.17;;;2.60;99.90;;;;;;4937690;28;20436;-91
2021/01/06 04:05:27;;;;;;;;;;;;;;;;;;;;;
2021/01/06 04:08:04;;;;;;;14.57;9.03;;;2.60;99.90;;;;;;4962056;28;20430;-88
2021/01/06 04:10:50;;;;;;;;;;;;;;;;;;;;;
2021/01/06 04:13:24;;;;;;;15.10;9.30;;;2.60;99.90;;;;;;4968184;28;20494;-89
2021/01/06 04:15:52;;;;;;;17.17;10.00;;;2.60;99.90;;;;;;4936534;28;20456;-88
2021/01/06 04:18:28;;;;;;;16.37;10.20;;;2.60;99.90;;;;;;4968382;28;20509;-89
2021/01/06 04:20:54;;;;;;;18.53;9.60;;;2.70;99.90;;;;;;4943077;28;20454;-86
2021/01/06 04:23:20;;;;;;;16.93;10.13;;;2.60;99.90;;;;;;4947395;28;20461;-88
2021/01/06 04:25:57;;;;;;;17.87;10.30;;;2.70;99.90;;;;;;4948592;28;20464;-89
2021/01/06 04:28:35;;;;;;;16.10;10.40;;;2.70;99.90;;;;;;4946548;28;20191;-89
2021/01/06 04:31:15;;;;;;;15.50;10.07;;;2.70;99.90;;;;;;4944176;28;20449;-90
2021/01/06 04:34:00;;;;;;;20.47;11.57;;;2.70;99.90;;;;;;4944641;28;20473;-87
2021/01/06 04:36:31;;;;;;;19.37;9.57;;;2.70;99.90;;;;;;4948132;28;20426;-88
2021/01/06 04:39:00;;;;;;;23.13;11.20;;;2.70;99.90;;;;;;4957641;28;20445;-87
2021/01/06 04:41:25;;;;;;;17.30;10.10;;;2.70;99.90;;;;;;4947962;28;20418;-89
2021/01/06 04:44:18;;;;;;;16.17;9.87;;;2.80;99.90;;;;;;4966568;28;20464;-89
2021/01/06 04:47:21;;;;;;;13.60;8.60;;;2.70;99.90;;;;;;4949144;28;20297;-87
2021/01/06 04:49:52;;;;;;;16.13;9.70;;;2.80;99.90;;;;;;4968157;28;20613;-88
2021/01/06 04:52:59;;;;;;;13.50;9.57;;;2.80;99.90;;;;;;4952245;28;20479;-86
2021/01/06 04:55:39;;;;;;;22.60;11.47;;;2.70;99.90;;;;;;4919220;28;20471;-90
2021/01/06 04:58:34;;;;;;;19.80;9.73;;;2.70;99.90;;;;;;4950861;28;20509;-87
2021/01/06 05:01:25;;;;;;;16.20;9.80;;;2.70;99.90;;;;;;4948334;28;20452;-88
2021/01/06 05:04:16;;;;;;;22.83;9.47;;;2.70;99.90;;;;;;4967326;28;20461;-87
2021/01/06 05:07:02;;;;;;;17.80;10.00;;;2.70;99.90;;;;;;4964759;28;20433;-88
2021/01/06 05:09:49;;;;;;;15.90;9.83;;;2.70;99.90;;;;;;4965265;28;20434;-89
2021/01/06 05:12:33;;;;;;;15.70;9.40;;;2.70;99.90;;;;;;4964384;28;21237;-88
2021/01/06 05:15:38;;;;;;;17.47;10.13;;;2.70;99.90;;;;;;4947684;28;20961;-92
2021/01/06 05:18:06;;;;;;;17.53;11.20;;;2.70;99.90;;;;;;4946506;28;20465;-87
2021/01/06 05:20:48;;;;;;;17.17;10.60;;;2.70;99.90;;;;;;4954966;28;20425;-89
2021/01/06 05:23:21;;;;;;;15.60;10.60;;;2.70;99.90;;;;;;4963051;28;20462;-90
2021/01/06 05:25:48;;;;;;;17.73;9.87;;;2.70;99.90;;;;;;4968031;28;20497;-86
2021/01/06 05:28:22;;;;;;;16.30;9.80;;;2.70;99.90;;;;;;4932493;28;20442;-89
2021/01/06 05:30:52;;;;;;;16.43;9.73;;;2.70;99.90;;;;;;4947497;28;20496;-88
2021/01/06 05:33:29;;;;;;;18.60;10.20;;;2.70;99.90;;;;;;4949256;28;20528;-90
2021/01/06 05:35:57;;;;;;;15.80;9.50;;;2.70;99.90;;;;;;4955240;28;20439;-87
2021/01/06 05:38:23;;;;;;;18.03;9.30;;;2.70;99.90;;;;;;4960384;28;20446;-89
2021/01/06 05:40:48;;;;;;;14.13;9.30;;;2.70;99.90;;;;;;4967092;28;20436;-91
2021/01/06 05:43:29;;;;;;;15.23;8.87;;;2.70;99.90;;;;;;4966927;28;20206;-90
2021/01/06 05:46:02;;;;;;;16.67;9.40;;;2.60;99.90;;;;;;4949465;28;20197;-91
2021/01/06 05:48:42;;;;;;;15.27;9.53;;;2.60;99.90;;;;;;4950869;28;20533;-88
2021/01/06 05:51:11;;;;;;;16.27;8.60;;;2.60;99.90;;;;;;4941190;28;20435;-89
2021/01/06 05:53:56;;;;;;;18.70;9.57;;;2.60;99.90;;;;;;4965425;28;20884;-90
2021/01/06 05:56:46;;;;;;;17.40;10.50;;;2.60;99.90;;;;;;4947632;28;20441;-89
2021/01/06 05:59:28;;;;;;;14.33;8.47;;;2.70;99.90;;;;;;4948436;28;20429;-90
2021/01/06 06:02:20;;;;;;;17.40;9.87;;;2.70;99.90;;;;;;4948627;28;20865;-90
2021/01/06 06:05:24;;;;;;;15.83;7.80;;;2.70;99.90;;;;;;4967447;28;20442;-89
2021/01/06 06:08:13;;;;;;;16.27;10.27;;;2.80;99.90;;;;;;4951821;28;20958;-87
2021/01/06 06:10:54;;;;;;;14.63;9.47;;;2.90;99.90;;;;;;4951253;28;20437;-89
2021/01/06 06:20:28;;;;;;;12.97;7.80;;;2.80;99.90;;;;;;4944263;28;20434;-91
2021/01/06 06:23:22;;;;;;;15.47;8.30;;;2.80;99.90;;;;;;4947746;28;20579;-90
2021/01/06 06:26:40;;;;;;;12.87;7.07;;;2.70;99.90;;;;;;4950405;28;20443;-90
2021/01/06 06:30:13;;;;;;;;;;;;;;;;;;;;;
2021/01/06 06:32:44;;;;;;;14.17;8.17;;;2.80;99.90;;;;;;4990390;28;20561;-95
2021/01/06 07:43:25;;;;;;;13.90;8.13;;;2.70;99.90;;;;;;727074;26;20758;-89
2021/01/06 07:46:30;;;;;;;13.33;8.87;;;2.70;99.90;;;;;;4944231;28;20447;-91
2021/01/06 07:49:20;;;;;;;20.83;8.33;;;2.70;99.90;;;;;;4893729;29;20447;-91
2021/01/06 07:52:07;;;;;;;18.27;8.50;;;2.80;99.90;;;;;;4964969;28;21146;-88
2021/01/06 07:54:56;;;;;;;14.90;9.20;;;2.80;99.90;;;;;;4948327;28;20580;-88
2021/01/06 07:57:45;;;;;;;17.17;9.27;;;2.80;99.90;;;;;;4946467;28;20445;-90
2021/01/06 08:00:34;;;;;;;12.97;8.23;;;2.70;99.90;;;;;;4946422;28;20423;-91
2021/01/06 08:03:19;;;;;;;12.47;7.80;;;2.80;99.90;;;;;;4962195;28;20556;-90
2021/01/06 08:09:03;;;;;;;13.13;8.50;;;2.90;99.90;;;;;;4951633;28;20434;-90
2021/01/06 08:16:06;;;;;;;11.03;7.93;;;3.00;99.90;;;;;;4936659;28;20454;-90
2021/01/06 08:19:18;;;;;;;12.60;9.07;;;2.90;99.90;;;;;;4962551;28;20476;-89
2021/01/06 08:22:09;;;;;;;15.33;8.97;;;3.00;99.90;;;;;;4963883;28;20441;-91
2021/01/06 08:25:36;;;;;;;14.63;8.57;;;2.90;99.90;;;;;;4943613;28;20451;-91
2021/01/06 08:28:29;;;;;;;13.30;7.73;;;2.90;99.90;;;;;;4901178;28;20439;-87
2021/01/06 08:31:43;;;;;;;13.30;8.87;;;2.90;99.90;;;;;;4911317;28;20461;-92
2021/01/06 08:35:09;;;;;;;13.83;8.30;;;2.90;99.90;;;;;;4923556;28;20500;-89
2021/01/06 08:38:23;;;;;;;15.27;7.83;;;2.90;99.90;;;;;;4908530;29;20454;-91
2021/01/06 08:45:19;;;;;;;13.00;8.20;;;3.00;99.90;;;;;;4952852;28;20447;-88
2021/01/06 08:48:26;;;;;;;12.90;8.03;;;3.10;99.90;;;;;;4905496;29;20543;-92
2021/01/06 08:51:17;;;;;;;;;;;;;;;;;;;;;
2021/01/06 08:54:27;;;;;;;14.43;8.60;;;3.10;99.90;;;;;;4955137;28;20495;-91
2021/01/06 08:57:50;;;;;;;;;;;;;;;;;;;;;
2021/01/06 09:00:58;;;;;;;13.00;8.50;;;3.10;99.90;;;;;;4914586;28;20473;-91
2021/01/06 09:03:54;;;;;;;;;;;;;;;;;;;;;
2021/01/06 09:06:27;;;;;;;14.33;8.87;;;3.20;99.90;;;;;;4966029;28;20418;-88
2021/01/06 09:09:23;;;;;;;13.43;8.40;;;3.20;99.90;;;;;;4941421;28;20438;-90
2021/01/06 09:17:52;;;;;;;13.27;8.03;;;3.20;99.90;;;;;;4937146;28;20435;-87
2021/01/06 09:24:22;;;;;;;14.87;9.17;;;3.20;99.90;;;;;;4938883;28;20484;-91
2021/01/06 09:27:49;;;;;;;17.33;8.27;;;3.30;99.90;;;;;;4908029;28;20446;-89
2021/01/06 09:30:49;;;;;;;;;;;;;;;;;;;;;
2021/01/06 09:37:04;;;;;;;12.43;7.97;;;3.30;99.90;;;;;;4946066;28;20570;-92
2021/01/06 09:39:45;;;;;;;14.43;8.80;;;3.30;99.90;;;;;;4935802;28;20522;-89
2021/01/06 10:10:44;;;;;;;15.17;10.10;;;3.60;99.90;;;;;;971149;26;20846;-89
2021/01/06 10:13:51;;;;;;;19.13;8.13;;;3.50;99.90;;;;;;4945924;28;20506;-90
2021/01/06 10:19:56;;;;;;;14.20;9.07;;;3.40;99.90;;;;;;4932316;28;21072;-89
2021/01/06 10:35:11;;;;;;;;;;;;;;;;;;;;;
2021/01/06 10:38:22;;;;;;;15.83;8.43;;;3.40;99.90;;;;;;4938264;28;20456;-91
2021/01/06 12:07:06;;;;;;;12.00;7.90;;;4.10;99.90;;;;;;4918222;29;21011;-74
2021/01/06 12:18:10;;;;;;;10.47;7.30;;;4.30;99.90;;;;;;5064295;23;20279;-87
2021/01/06 12:21:24;;;;;;;13.27;8.00;;;4.20;99.90;;;;;;4950913;28;20430;-88
2021/01/06 12:27:43;;;;;;;15.70;7.87;;;4.20;99.90;;;;;;4887873;29;20505;-85
2021/01/06 12:30:12;;;;;;;10.50;7.17;;;4.20;99.90;;;;;;4895468;29;20428;-88
2021/01/06 12:32:51;;;;;;;10.40;7.20;;;4.30;99.90;;;;;;4943197;28;21179;-90
2021/01/06 12:38:56;;;;;;;13.83;8.20;;;4.20;99.90;;;;;;4945809;28;20467;-88
2021/01/06 13:05:32;;;;;;;9.60;7.23;;;4.40;99.90;;;;;;5218391;23;20496;-92
2021/01/06 13:12:09;;;;;;;12.57;7.50;;;4.30;99.90;;;;;;4971113;28;20428;-89
2021/01/06 13:15:31;;;;;;;9.93;6.63;;;4.50;99.90;;;;;;4926349;28;20474;-91
2021/01/06 13:18:45;;;;;;;12.03;7.50;;;4.40;99.90;;;;;;4959306;28;20431;-94
2021/01/06 13:45:48;;;;;;;15.30;9.87;;;3.80;99.90;;;;;;5438938;23;20484;-89
2021/01/06 13:48:41;;;;;;;13.47;8.70;;;3.80;99.90;;;;;;4950678;28;20434;-90
2021/01/06 13:51:33;;;;;;;13.10;8.93;;;3.60;99.90;;;;;;4951930;28;21074;-86
2021/01/06 13:57:56;;;;;;;14.13;8.90;;;3.40;99.90;;;;;;4951268;28;20446;-89
2021/01/06 14:01:32;;;;;;;15.23;10.27;;;3.30;99.90;;;;;;4865878;29;20440;-89
2021/01/06 14:04:22;;;;;;;12.60;8.80;;;3.20;99.90;;;;;;4837673;29;20462;-90
2021/01/06 14:07:25;;;;;;;14.60;10.50;;;3.10;99.90;;;;;;4894047;29;20441;-86
2021/01/06 14:10:55;;;;;;;14.50;8.80;;;3.20;99.90;;;;;;4890157;29;20436;-89
2021/01/06 14:13:56;;;;;;;10.63;7.97;;;3.30;99.90;;;;;;4867525;29;20472;-92
2021/01/06 14:16:44;;;;;;;;;;;;;;;;;;;;;
2021/01/06 14:30:26;;;;;;;15.00;8.93;;;3.00;99.90;;;;;;4880080;28;20616;-86
2021/01/06 14:34:31;;;;;;;15.70;8.63;;;3.00;99.90;;;;;;5032159;28;20589;-88
2021/01/06 14:37:31;;;;;;;14.77;8.30;;;2.90;99.90;;;;;;4974697;28;20597;-89
2021/01/06 14:40:45;;;;;;;13.90;8.50;;;2.90;99.90;;;;;;5002659;28;20921;-90
2021/01/06 14:43:45;;;;;;;15.23;9.00;;;2.90;99.90;;;;;;4972779;28;20459;-88
2021/01/06 14:47:02;;;;;;;11.97;8.00;;;2.70;99.90;;;;;;4971675;28;20469;-87
2021/01/06 14:49:35;;;;;;;11.40;7.83;;;2.70;99.90;;;;;;4964992;28;20429;-89
2021/01/06 14:52:57;;;;;;;13.30;9.03;;;2.70;99.90;;;;;;4978846;28;20426;-91
2021/01/06 14:55:27;;;;;;;10.90;6.80;;;2.60;99.90;;;;;;4944856;28;20438;-88
2021/01/06 14:58:16;;;;;;;10.37;6.60;;;2.50;99.90;;;;;;4976369;28;20468;-89
2021/01/06 15:00:57;;;;;;;14.17;8.00;;;2.50;99.90;;;;;;4980730;28;20431;-89
2021/01/06 15:03:53;;;;;;;8.53;5.77;;;2.50;99.90;;;;;;4993305;28;20457;-88
2021/01/06 15:06:29;;;;;;;12.00;6.97;;;2.40;99.90;;;;;;4980858;28;20456;-88
2021/01/06 15:09:35;;;;;;;9.47;6.77;;;2.40;99.90;;;;;;4982941;28;20942;-89
2021/01/06 15:12:10;;;;;;;10.57;7.13;;;2.30;99.90;;;;;;5011426;28;20437;-87
2021/01/06 15:14:49;;;;;;;10.63;6.73;;;2.30;99.90;;;;;;4984538;28;20476;-87
2021/01/06 15:17:41;;;;;;;10.83;7.13;;;2.20;99.90;;;;;;4981152;28;20427;-89
2021/01/06 15:20:33;;;;;;;11.80;7.43;;;2.20;99.90;;;;;;4978701;28;20880;-92
2021/01/06 15:23:23;;;;;;;8.93;6.20;;;2.20;99.90;;;;;;4974896;28;20480;-92
2021/01/06 15:26:09;;;;;;;13.20;7.07;;;2.10;99.90;;;;;;4975223;28;20460;-87
2021/01/06 15:29:32;;;;;;;10.77;7.27;;;2.10;99.90;;;;;;4993990;28;21295;-87
2021/01/06 15:32:29;;;;;;;12.20;6.77;;;2.10;99.90;;;;;;4999588;28;20449;-89
2021/01/06 15:34:56;;;;;;;9.33;5.50;;;2.20;99.90;;;;;;4977983;28;20443;-88
2021/01/06 15:37:33;;;;;;;12.20;7.47;;;2.20;99.90;;;;;;4980287;28;21161;-87
2021/01/06 15:40:23;;;;;;;11.70;5.10;;;2.20;99.90;;;;;;4977165;28;20472;-87
2021/01/06 15:43:01;;;;;;;12.60;7.60;;;2.10;99.90;;;;;;4979777;28;20453;-88
2021/01/06 15:46:23;;;;;;;14.90;8.07;;;2.10;99.90;;;;;;4966675;28;20499;-87
2021/01/06 15:57:23;;;;;;;12.80;8.27;;;2.00;99.90;;;;;;5665637;23;20494;-85
2021/01/06 16:00:23;;;;;;;14.83;9.30;;;2.00;99.90;;;;;;5008017;28;20435;-86
2021/01/06 16:02:57;;;;;;;12.30;7.57;;;2.00;99.90;;;;;;5007964;28;21065;-86
2021/01/06 16:05:39;;;;;;;13.30;7.70;;;2.00;99.90;;;;;;4999687;28;20462;-88
2021/01/06 16:08:38;;;;;;;12.07;7.27;;;2.10;99.90;;;;;;5004192;28;20457;-85
2021/01/06 16:11:16;;;;;;;13.40;8.17;;;2.00;99.90;;;;;;5017033;28;20459;-87
2021/01/06 16:13:45;;;;;;;12.23;7.67;;;2.00;99.90;;;;;;5024622;28;20486;-88
2021/01/06 16:16:41;;;;;;;13.67;8.37;;;2.00;99.90;;;;;;5005873;28;20943;-89
2021/01/06 16:19:54;;;;;;;10.63;7.47;;;2.10;99.90;;;;;;5006152;28;20459;-87
2021/01/06 16:22:31;;;;;;;12.87;7.63;;;2.10;99.90;;;;;;5002226;28;20463;-88
2021/01/06 16:25:27;;;;;;;16.20;8.93;;;2.00;99.90;;;;;;4987027;28;20586;-88
2021/01/06 16:27:56;;;;;;;14.33;8.73;;;2.00;99.90;;;;;;5021490;28;20533;-87
2021/01/06 16:30:35;;;;;;;11.97;9.10;;;1.90;99.90;;;;;;5006545;28;20465;-86
2021/01/06 16:33:01;;;;;;;14.80;8.00;;;1.90;99.90;;;;;;5005663;28;20497;-86
2021/01/06 16:35:35;;;;;;;12.40;8.60;;;1.80;99.90;;;;;;4998187;28;20454;-88
2021/01/06 16:38:37;;;;;;;11.60;8.37;;;1.70;99.90;;;;;;5004404;28;20542;-86
2021/01/06 16:41:35;;;;;;;12.00;7.23;;;1.70;99.90;;;;;;5018317;28;20459;-88
2021/01/06 16:44:03;;;;;;;12.03;7.67;;;1.70;99.90;;;;;;5002151;28;20471;-85
2021/01/06 16:46:35;;;;;;;14.80;8.87;;;1.60;99.90;;;;;;5005527;28;20428;-85
2021/01/06 16:49:12;;;;;;;13.80;7.57;;;1.70;99.90;;;;;;4999503;28;20497;-88
2021/01/06 16:51:43;;;;;;;13.50;8.80;;;1.70;99.90;;;;;;5006761;28;20442;-85
2021/01/06 16:54:31;;;;;;;12.67;8.40;;;1.70;99.90;;;;;;4989464;28;20488;-88
2021/01/06 16:57:03;;;;;;;13.20;8.63;;;1.70;99.90;;;;;;5018500;28;20446;-87
2021/01/06 16:59:37;;;;;;;13.73;8.23;;;1.70;99.90;;;;;;5006985;28;20459;-88
2021/01/06 17:02:17;;;;;;;12.70;8.07;;;1.70;99.90;;;;;;5003526;28;20436;-85
2021/01/06 17:04:49;;;;;;;13.53;7.90;;;1.80;99.90;;;;;;5007242;28;20516;-88
2021/01/06 17:07:32;;;;;;;11.27;7.70;;;1.70;99.90;;;;;;5003800;28;21675;-88
2021/01/06 17:10:00;;;;;;;14.30;7.30;;;1.70;99.90;;;;;;5006490;28;20438;-87
2021/01/06 17:12:38;;;;;;;13.03;7.10;;;1.70;99.90;;;;;;5001748;28;20507;-87
2021/01/06 17:15:05;;;;;;;13.20;7.83;;;1.70;99.90;;;;;;4985664;28;20442;-87
2021/01/06 17:17:42;;;;;;;13.93;8.10;;;1.60;99.90;;;;;;5000366;28;20477;-90
2021/01/06 17:20:20;;;;;;;15.70;9.57;;;1.60;99.90;;;;;;5001124;28;20525;-88
2021/01/06 17:22:46;;;;;;;17.07;10.10;;;1.70;99.90;;;;;;5004284;28;20936;-85
2021/01/06 17:25:14;;;;;;;13.50;7.50;;;1.70;99.90;;;;;;5002290;28;20458;-88
2021/01/06 17:27:46;;;;;;;12.80;7.93;;;1.60;99.90;;;;;;4988009;28;20226;-90
2021/01/06 17:30:20;;;;;;;19.97;10.23;;;1.60;99.90;;;;;;5001881;28;20445;-87
2021/01/06 17:32:53;;;;;;;9.70;6.17;;;1.60;99.90;;;;;;5006344;28;21089;-85
2021/01/06 17:35:22;;;;;;;16.90;8.73;;;1.60;99.90;;;;;;5007809;28;20479;-89
2021/01/06 17:37:50;;;;;;;14.77;8.83;;;1.70;99.90;;;;;;5007566;28;20426;-90
2021/01/06 17:40:15;;;;;;;13.33;7.80;;;1.70;99.90;;;;;;5015253;28;20493;-92
2021/01/06 17:42:45;;;;;;;11.70;7.60;;;1.70;99.90;;;;;;5025547;28;20464;-88
2021/01/06 17:45:11;;;;;;;13.20;8.77;;;1.70;99.90;;;;;;5007982;28;20783;-86
2021/01/06 17:47:44;;;;;;;17.57;8.20;;;1.70;99.90;;;;;;5004327;28;20427;-86
2021/01/06 17:50:11;;;;;;;12.47;8.33;;;1.70;99.90;;;;;;5000294;28;20892;-87
2021/01/06 17:52:47;;;;;;;13.17;7.40;;;1.80;99.90;;;;;;4984101;28;20946;-88
2021/01/06 17:55:30;;;;;;;11.47;8.00;;;1.70;99.90;;;;;;5003640;28;20530;-93
2021/01/06 18:01:24;;;;;;;10.53;7.57;;;1.70;99.90;;;;;;4999786;28;21103;-87
2021/01/06 18:03:52;;;;;;;18.63;9.57;;;1.80;99.90;;;;;;4986517;28;20462;-87
2021/01/06 18:06:30;;;;;;;11.10;7.50;;;1.70;99.90;;;;;;5003300;28;20947;-85
2021/01/06 18:09:03;;;;;;;16.60;8.60;;;1.70;99.90;;;;;;5003452;28;20439;-91
2021/01/06 18:11:31;;;;;;;11.50;8.30;;;1.70;99.90;;;;;;4979175;28;20469;-90
2021/01/06 18:14:02;;;;;;;10.50;7.67;;;1.80;99.90;;;;;;5001981;28;20486;-91
2021/01/06 18:16:28;;;;;;;11.47;9.10;;;1.70;99.90;;;;;;4982090;28;20429;-90
2021/01/06 18:18:54;;;;;;;15.27;8.53;;;1.70;99.90;;;;;;4998844;28;20530;-87
2021/01/06 18:21:38;;;;;;;10.17;8.20;;;1.60;99.90;;;;;;4985641;28;21263;-89
2021/01/06 18:24:34;;;;;;;13.17;8.37;;;1.60;99.90;;;;;;5002290;28;20463;-89
2021/01/06 18:27:02;;;;;;;11.97;8.20;;;1.60;99.90;;;;;;4999859;28;20452;-90
2021/01/06 18:29:37;;;;;;;12.70;8.50;;;1.60;99.90;;;;;;5000196;28;20476;-88
2021/01/06 18:32:21;;;;;;;16.73;9.33;;;1.50;99.90;;;;;;5005566;28;20437;-88
2021/01/06 18:35:14;;;;;;;11.43;8.40;;;1.60;99.90;;;;;;5003233;28;20441;-87
2021/01/06 18:37:43;;;;;;;13.23;9.00;;;1.60;99.90;;;;;;4993920;28;20452;-90
2021/01/06 18:40:16;;;;;;;13.27;9.00;;;1.60;99.90;;;;;;5001721;28;20797;-90
2021/01/06 18:42:42;;;;;;;13.53;8.00;;;1.60;99.90;;;;;;4985225;28;20462;-86
2021/01/06 18:45:11;;;;;;;13.10;7.87;;;1.60;99.90;;;;;;5005078;28;20427;-89
2021/01/06 18:47:51;;;;;;;13.60;8.93;;;1.60;99.90;;;;;;5000098;28;20438;-89
2021/01/06 18:50:28;;;;;;;12.10;8.50;;;1.50;99.90;;;;;;5002615;28;20433;-90
2021/01/06 18:53:24;;;;;;;14.43;8.43;;;1.60;99.90;;;;;;4998979;28;20515;-89
2021/01/06 18:58:56;;;;;;;14.90;8.60;;;1.50;99.90;;;;;;5006871;28;20481;-89
2021/01/06 19:01:34;;;;;;;14.63;8.50;;;1.50;99.90;;;;;;5001910;28;20540;-87
2021/01/06 19:04:00;;;;;;;16.10;9.00;;;1.50;99.90;;;;;;4996267;28;20512;-79
2021/01/06 19:06:36;;;;;;;16.27;10.10;;;1.50;99.90;;;;;;4999427;28;20490;-80
2021/01/06 19:09:03;;;;;;;14.90;9.20;;;1.60;99.90;;;;;;4996896;28;20221;-81
2021/01/06 19:11:28;;;;;;;12.87;8.97;;;1.60;99.90;;;;;;5001709;28;20437;-82
2021/01/06 19:13:56;;;;;;;13.73;9.30;;;1.60;99.90;;;;;;5001263;28;20966;-88
2021/01/06 19:16:31;;;;;;;15.20;9.00;;;1.60;99.90;;;;;;5002072;28;20596;-87
2021/01/06 19:19:13;;;;;;;14.97;10.07;;;1.60;99.90;;;;;;4999727;28;20954;-85
2021/01/06 19:21:41;;;;;;;12.17;8.43;;;1.60;99.90;;;;;;4998854;28;20979;-85
2021/01/06 19:24:12;;;;;;;16.33;8.87;;;1.60;99.90;;;;;;4987284;28;20521;-87
2021/01/06 19:26:38;;;;;;;16.70;9.17;;;1.60;99.90;;;;;;5001218;28;20441;-89
2021/01/06 19:29:12;;;;;;;17.77;9.07;;;1.60;99.90;;;;;;5004319;28;20442;-87
2021/01/06 19:31:37;;;;;;;20.20;11.70;;;1.60;99.90;;;;;;5003441;28;20446;-86
2021/01/06 19:34:04;;;;;;;15.90;8.70;;;1.60;99.90;;;;;;5002738;28;20478;-84
2021/01/06 19:36:37;;;;;;;15.27;9.80;;;1.60;99.90;;;;;;5000105;28;20191;-86
2021/01/06 19:39:10;;;;;;;18.23;10.17;;;1.60;99.90;;;;;;5000244;28;20432;-83
2021/01/06 19:41:47;;;;;;;14.90;8.53;;;1.60;99.90;;;;;;5000996;28;20438;-89
2021/01/06 19:47:26;;;;;;;14.40;9.93;;;1.60;99.90;;;;;;5000128;28;20424;-90
2021/01/06 19:49:52;;;;;;;14.67;10.13;;;1.60;99.90;;;;;;5004117;28;20454;-87
2021/01/06 19:52:33;;;;;;;16.13;8.97;;;1.60;99.90;;;;;;4983202;28;20540;-86
2021/01/06 19:55:07;;;;;;;14.10;8.90;;;1.60;99.90;;;;;;5001056;28;20665;-85
2021/01/06 19:57:39;;;;;;;18.93;10.93;;;1.50;99.90;;;;;;5000501;28;20437;-86
2021/01/06 20:00:15;;;;;;;14.53;9.90;;;1.50;99.90;;;;;;5006850;28;20432;-88
2021/01/06 20:02:48;;;;;;;17.63;10.57;;;1.50;99.90;;;;;;4988749;28;20618;-88
2021/01/06 20:05:34;;;;;;;11.23;8.27;;;1.60;99.90;;;;;;5006715;28;20535;-90
2021/01/06 20:08:00;;;;;;;13.37;9.20;;;1.60;99.90;;;;;;5004330;28;20431;-88